sensor_id;sensor_type;location;lat;lon;timestamp;temperature;humidity
19060;DHT22;9663;48.996;8.334;2023-09-19T00:01:34;20.60;59.40
19060;DHT22;9663;48.996;8.334;2023-09-19T00:04:00;20.60;59.60
19060;DHT22;9663;48.996;8.334;2023-09-19T00:06:29;20.60;59.70
19060;DHT22;9663;48.996;8.334;2023-09-19T00:08:57;20.60;59.90
19060;DHT22;9663;48.996;8.334;2023-09-19T00:11:25;20.50;59.70
19060;DHT22;9663;48.996;8.334;2023-09-19T00:13:52;20.50;59.70
19060;DHT22;9663;48.996;8.334;2023-09-19T00:16:18;20.50;59.80
19060;DHT22;9663;48.996;8.334;2023-09-19T00:18:44;20.50;59.90
19060;DHT22;9663;48.996;8.334;2023-09-19T00:21:11;20.50;60.00
19060;DHT22;9663;48.996;8.334;2023-09-19T00:23:37;20.50;60.00
19060;DHT22;9663;48.996;8.334;2023-09-19T00:26:03;20.40;60.00
19060;DHT22;9663;48.996;8.334;2023-09-19T00:28:29;20.40;60.70
19060;DHT22;9663;48.996;8.334;2023-09-19T00:30:55;20.40;60.70
19060;DHT22;9663;48.996;8.334;2023-09-19T00:33:22;20.40;60.10
19060;DHT22;9663;48.996;8.334;2023-09-19T00:35:52;20.40;60.10
19060;DHT22;9663;48.996;8.334;2023-09-19T00:38:20;20.40;60.40
19060;DHT22;9663;48.996;8.334;2023-09-19T00:40:48;20.40;60.30
19060;DHT22;9663;48.996;8.334;2023-09-19T00:43:16;20.40;60.40
19060;DHT22;9663;48.996;8.334;2023-09-19T00:45:45;20.50;60.40
19060;DHT22;9663;48.996;8.334;2023-09-19T00:48:14;20.50;60.50
19060;DHT22;9663;48.996;8.334;2023-09-19T00:50:42;20.50;60.40
19060;DHT22;9663;48.996;8.334;2023-09-19T00:53:09;20.50;60.50
19060;DHT22;9663;48.996;8.334;2023-09-19T00:55:39;20.50;60.40
19060;DHT22;9663;48.996;8.334;2023-09-19T00:58:08;20.50;60.40
19060;DHT22;9663;48.996;8.334;2023-09-19T01:00:35;20.60;60.40
19060;DHT22;9663;48.996;8.334;2023-09-19T01:03:02;20.60;60.50
19060;DHT22;9663;48.996;8.334;2023-09-19T01:05:28;20.60;60.40
19060;DHT22;9663;48.996;8.334;2023-09-19T01:07:55;20.70;60.40
19060;DHT22;9663;48.996;8.334;2023-09-19T01:10:21;20.70;60.30
19060;DHT22;9663;48.996;8.334;2023-09-19T01:16:27;20.70;60.60
19060;DHT22;9663;48.996;8.334;2023-09-19T01:21:55;20.70;60.50
19060;DHT22;9663;48.996;8.334;2023-09-19T01:30:27;20.80;60.70
19060;DHT22;9663;48.996;8.334;2023-09-19T01:32:59;20.80;60.40
19060;DHT22;9663;48.996;8.334;2023-09-19T01:35:25;20.80;60.20
19060;DHT22;9663;48.996;8.334;2023-09-19T01:37:51;20.80;60.20
19060;DHT22;9663;48.996;8.334;2023-09-19T01:40:21;20.80;60.20
19060;DHT22;9663;48.996;8.334;2023-09-19T01:43:19;20.80;60.20
19060;DHT22;9663;48.996;8.334;2023-09-19T01:54:33;20.60;60.60
19060;DHT22;9663;48.996;8.334;2023-09-19T01:57:35;20.60;60.80
19060;DHT22;9663;48.996;8.334;2023-09-19T02:00:14;20.60;61.10
19060;DHT22;9663;48.996;8.334;2023-09-19T02:02:46;20.60;60.50
19060;DHT22;9663;48.996;8.334;2023-09-19T02:05:13;20.60;60.60
19060;DHT22;9663;48.996;8.334;2023-09-19T02:07:47;20.70;60.70
19060;DHT22;9663;48.996;8.334;2023-09-19T02:10:13;20.70;60.70
19060;DHT22;9663;48.996;8.334;2023-09-19T02:12:39;20.70;60.80
19060;DHT22;9663;48.996;8.334;2023-09-19T02:15:05;20.70;60.80
19060;DHT22;9663;48.996;8.334;2023-09-19T02:17:32;20.70;60.70
19060;DHT22;9663;48.996;8.334;2023-09-19T02:19:58;20.70;60.80
19060;DHT22;9663;48.996;8.334;2023-09-19T02:22:26;20.70;60.70
19060;DHT22;9663;48.996;8.334;2023-09-19T02:24:53;20.70;60.80
19060;DHT22;9663;48.996;8.334;2023-09-19T02:27:19;20.70;60.70
19060;DHT22;9663;48.996;8.334;2023-09-19T02:29:45;20.70;60.80
19060;DHT22;9663;48.996;8.334;2023-09-19T02:32:11;20.70;60.80
19060;DHT22;9663;48.996;8.334;2023-09-19T02:34:36;20.70;60.80
19060;DHT22;9663;48.996;8.334;2023-09-19T02:37:07;20.70;60.80
19060;DHT22;9663;48.996;8.334;2023-09-19T02:39:34;20.70;60.80
19060;DHT22;9663;48.996;8.334;2023-09-19T02:42:00;20.70;61.70
19060;DHT22;9663;48.996;8.334;2023-09-19T02:44:26;20.70;60.90
19060;DHT22;9663;48.996;8.334;2023-09-19T02:46:52;20.70;60.90
19060;DHT22;9663;48.996;8.334;2023-09-19T02:49:18;20.70;61.00
19060;DHT22;9663;48.996;8.334;2023-09-19T02:51:44;20.70;61.00
19060;DHT22;9663;48.996;8.334;2023-09-19T02:54:11;20.70;61.00
19060;DHT22;9663;48.996;8.334;2023-09-19T02:56:37;20.70;61.00
19060;DHT22;9663;48.996;8.334;2023-09-19T02:59:03;20.70;61.10
19060;DHT22;9663;48.996;8.334;2023-09-19T03:01:29;20.70;61.10
19060;DHT22;9663;48.996;8.334;2023-09-19T03:03:55;20.70;61.10
19060;DHT22;9663;48.996;8.334;2023-09-19T03:06:21;20.70;61.20
19060;DHT22;9663;48.996;8.334;2023-09-19T03:08:48;20.70;61.20
19060;DHT22;9663;48.996;8.334;2023-09-19T03:11:16;20.70;61.40
19060;DHT22;9663;48.996;8.334;2023-09-19T03:13:55;20.70;61.40
19060;DHT22;9663;48.996;8.334;2023-09-19T03:16:21;20.70;61.30
19060;DHT22;9663;48.996;8.334;2023-09-19T03:18:50;20.70;61.30
19060;DHT22;9663;48.996;8.334;2023-09-19T03:21:16;20.70;61.40
19060;DHT22;9663;48.996;8.334;2023-09-19T03:23:43;20.70;61.40
19060;DHT22;9663;48.996;8.334;2023-09-19T03:26:14;20.70;61.50
19060;DHT22;9663;48.996;8.334;2023-09-19T03:28:42;20.70;61.50
19060;DHT22;9663;48.996;8.334;2023-09-19T03:31:09;20.70;61.50
19060;DHT22;9663;48.996;8.334;2023-09-19T03:33:35;20.70;61.60
19060;DHT22;9663;48.996;8.334;2023-09-19T03:36:02;20.70;61.50
19060;DHT22;9663;48.996;8.334;2023-09-19T03:38:31;20.70;61.70
19060;DHT22;9663;48.996;8.334;2023-09-19T03:40:58;20.70;61.70
19060;DHT22;9663;48.996;8.334;2023-09-19T03:43:24;20.70;61.70
19060;DHT22;9663;48.996;8.334;2023-09-19T03:45:50;20.70;61.70
19060;DHT22;9663;48.996;8.334;2023-09-19T03:48:20;20.60;61.70
19060;DHT22;9663;48.996;8.334;2023-09-19T03:50:47;20.60;61.80
19060;DHT22;9663;48.996;8.334;2023-09-19T03:53:13;20.60;61.80
19060;DHT22;9663;48.996;8.334;2023-09-19T03:55:39;20.60;61.90
19060;DHT22;9663;48.996;8.334;2023-09-19T03:58:05;20.60;61.80
19060;DHT22;9663;48.996;8.334;2023-09-19T04:00:30;20.60;61.90
19060;DHT22;9663;48.996;8.334;2023-09-19T04:02:56;20.60;61.90
19060;DHT22;9663;48.996;8.334;2023-09-19T04:05:23;20.60;62.00
19060;DHT22;9663;48.996;8.334;2023-09-19T04:07:49;20.50;62.00
19060;DHT22;9663;48.996;8.334;2023-09-19T04:10:15;20.50;62.10
19060;DHT22;9663;48.996;8.334;2023-09-19T04:12:54;20.50;62.30
19060;DHT22;9663;48.996;8.334;2023-09-19T04:15:21;20.50;62.50
19060;DHT22;9663;48.996;8.334;2023-09-19T04:17:51;20.50;62.30
19060;DHT22;9663;48.996;8.334;2023-09-19T04:20:17;20.50;62.30
19060;DHT22;9663;48.996;8.334;2023-09-19T04:22:45;20.50;62.40
19060;DHT22;9663;48.996;8.334;2023-09-19T04:25:12;20.50;62.50
19060;DHT22;9663;48.996;8.334;2023-09-19T04:27:37;20.50;62.50
19060;DHT22;9663;48.996;8.334;2023-09-19T04:30:04;20.50;62.50
19060;DHT22;9663;48.996;8.334;2023-09-19T04:32:35;20.50;62.60
19060;DHT22;9663;48.996;8.334;2023-09-19T04:35:04;20.50;62.70
19060;DHT22;9663;48.996;8.334;2023-09-19T04:37:31;20.50;62.70
19060;DHT22;9663;48.996;8.334;2023-09-19T04:39:58;20.60;62.70
19060;DHT22;9663;48.996;8.334;2023-09-19T04:42:23;20.60;62.70
19060;DHT22;9663;48.996;8.334;2023-09-19T04:44:50;20.50;62.70
19060;DHT22;9663;48.996;8.334;2023-09-19T04:47:19;20.60;62.80
19060;DHT22;9663;48.996;8.334;2023-09-19T04:49:44;20.50;62.90
19060;DHT22;9663;48.996;8.334;2023-09-19T04:52:10;20.60;62.90
19060;DHT22;9663;48.996;8.334;2023-09-19T04:54:36;20.60;63.00
19060;DHT22;9663;48.996;8.334;2023-09-19T04:57:01;20.60;62.90
19060;DHT22;9663;48.996;8.334;2023-09-19T04:59:27;20.60;63.70
19060;DHT22;9663;48.996;8.334;2023-09-19T05:01:54;20.50;62.90
19060;DHT22;9663;48.996;8.334;2023-09-19T05:04:19;20.60;63.00
19060;DHT22;9663;48.996;8.334;2023-09-19T05:06:45;20.50;63.00
19060;DHT22;9663;48.996;8.334;2023-09-19T05:09:11;20.60;63.00
19060;DHT22;9663;48.996;8.334;2023-09-19T05:11:36;20.60;63.00
19060;DHT22;9663;48.996;8.334;2023-09-19T05:14:03;20.50;62.80
19060;DHT22;9663;48.996;8.334;2023-09-19T05:16:29;20.50;62.70
19060;DHT22;9663;48.996;8.334;2023-09-19T05:18:58;20.50;62.80
19060;DHT22;9663;48.996;8.334;2023-09-19T05:21:26;20.50;62.80
19060;DHT22;9663;48.996;8.334;2023-09-19T05:23:54;20.50;62.80
19060;DHT22;9663;48.996;8.334;2023-09-19T05:26:20;20.50;63.00
19060;DHT22;9663;48.996;8.334;2023-09-19T05:28:46;20.40;63.00
19060;DHT22;9663;48.996;8.334;2023-09-19T05:31:13;20.40;63.10
19060;DHT22;9663;48.996;8.334;2023-09-19T05:33:40;20.50;63.10
19060;DHT22;9663;48.996;8.334;2023-09-19T05:36:06;20.50;63.20
19060;DHT22;9663;48.996;8.334;2023-09-19T05:38:35;20.50;63.10
19060;DHT22;9663;48.996;8.334;2023-09-19T05:41:00;20.50;63.00
19060;DHT22;9663;48.996;8.334;2023-09-19T05:43:27;20.50;63.20
19060;DHT22;9663;48.996;8.334;2023-09-19T05:45:53;20.50;63.10
19060;DHT22;9663;48.996;8.334;2023-09-19T05:48:21;20.40;63.00
19060;DHT22;9663;48.996;8.334;2023-09-19T05:50:47;20.50;63.10
19060;DHT22;9663;48.996;8.334;2023-09-19T05:53:14;20.50;63.10
19060;DHT22;9663;48.996;8.334;2023-09-19T05:55:41;20.50;63.10
19060;DHT22;9663;48.996;8.334;2023-09-19T05:58:07;20.50;63.00
19060;DHT22;9663;48.996;8.334;2023-09-19T06:00:34;20.40;63.00
19060;DHT22;9663;48.996;8.334;2023-09-19T06:02:59;20.40;63.00
19060;DHT22;9663;48.996;8.334;2023-09-19T06:05:26;20.40;63.00
19060;DHT22;9663;48.996;8.334;2023-09-19T06:07:53;20.40;63.10
19060;DHT22;9663;48.996;8.334;2023-09-19T06:10:19;20.40;63.10
19060;DHT22;9663;48.996;8.334;2023-09-19T06:12:49;20.40;63.10
19060;DHT22;9663;48.996;8.334;2023-09-19T06:15:15;20.30;63.00
19060;DHT22;9663;48.996;8.334;2023-09-19T06:17:48;20.30;63.00
19060;DHT22;9663;48.996;8.334;2023-09-19T06:20:15;20.30;63.10
19060;DHT22;9663;48.996;8.334;2023-09-19T06:22:43;20.30;63.10
19060;DHT22;9663;48.996;8.334;2023-09-19T06:25:10;20.30;63.00
19060;DHT22;9663;48.996;8.334;2023-09-19T06:27:40;20.30;63.00
19060;DHT22;9663;48.996;8.334;2023-09-19T06:30:10;20.30;63.10
19060;DHT22;9663;48.996;8.334;2023-09-19T06:32:40;20.30;63.00
19060;DHT22;9663;48.996;8.334;2023-09-19T06:35:13;20.30;62.90
19060;DHT22;9663;48.996;8.334;2023-09-19T06:37:41;20.30;63.00
19060;DHT22;9663;48.996;8.334;2023-09-19T06:40:09;20.30;63.00
19060;DHT22;9663;48.996;8.334;2023-09-19T06:43:00;20.30;62.90
19060;DHT22;9663;48.996;8.334;2023-09-19T06:45:27;20.30;62.90
19060;DHT22;9663;48.996;8.334;2023-09-19T06:47:53;20.30;62.70
19060;DHT22;9663;48.996;8.334;2023-09-19T06:50:23;20.30;62.70
19060;DHT22;9663;48.996;8.334;2023-09-19T06:52:51;20.40;62.80
19060;DHT22;9663;48.996;8.334;2023-09-19T06:55:20;20.40;62.70
19060;DHT22;9663;48.996;8.334;2023-09-19T06:57:46;20.40;62.70
19060;DHT22;9663;48.996;8.334;2023-09-19T07:00:13;20.40;62.60
19060;DHT22;9663;48.996;8.334;2023-09-19T07:02:59;20.50;62.70
19060;DHT22;9663;48.996;8.334;2023-09-19T07:05:30;20.50;62.80
19060;DHT22;9663;48.996;8.334;2023-09-19T07:07:59;20.60;62.60
19060;DHT22;9663;48.996;8.334;2023-09-19T07:10:27;20.70;62.70
19060;DHT22;9663;48.996;8.334;2023-09-19T07:13:04;20.70;62.50
19060;DHT22;9663;48.996;8.334;2023-09-19T07:15:35;20.70;62.50
19060;DHT22;9663;48.996;8.334;2023-09-19T07:18:12;20.80;62.50
19060;DHT22;9663;48.996;8.334;2023-09-19T07:20:40;20.90;62.50
19060;DHT22;9663;48.996;8.334;2023-09-19T07:23:11;20.90;62.50
19060;DHT22;9663;48.996;8.334;2023-09-19T07:25:39;21.00;62.50
19060;DHT22;9663;48.996;8.334;2023-09-19T07:28:05;21.10;62.50
19060;DHT22;9663;48.996;8.334;2023-09-19T07:30:32;21.20;62.30
19060;DHT22;9663;48.996;8.334;2023-09-19T07:33:00;21.30;62.00
19060;DHT22;9663;48.996;8.334;2023-09-19T07:35:28;21.30;61.80
19060;DHT22;9663;48.996;8.334;2023-09-19T07:37:53;21.40;61.70
19060;DHT22;9663;48.996;8.334;2023-09-19T07:40:20;21.40;61.60
19060;DHT22;9663;48.996;8.334;2023-09-19T07:42:46;21.40;61.50
19060;DHT22;9663;48.996;8.334;2023-09-19T07:45:12;21.50;61.40
19060;DHT22;9663;48.996;8.334;2023-09-19T07:47:49;21.60;61.50
19060;DHT22;9663;48.996;8.334;2023-09-19T07:50:17;21.60;61.30
19060;DHT22;9663;48.996;8.334;2023-09-19T07:52:49;21.70;61.50
19060;DHT22;9663;48.996;8.334;2023-09-19T07:55:19;21.80;61.50
19060;DHT22;9663;48.996;8.334;2023-09-19T07:57:49;21.90;61.30
19060;DHT22;9663;48.996;8.334;2023-09-19T08:00:15;21.90;61.20
19060;DHT22;9663;48.996;8.334;2023-09-19T08:02:42;22.10;61.10
19060;DHT22;9663;48.996;8.334;2023-09-19T08:05:12;22.10;61.10
19060;DHT22;9663;48.996;8.334;2023-09-19T08:07:43;22.20;60.70
19060;DHT22;9663;48.996;8.334;2023-09-19T08:10:14;22.30;60.80
19060;DHT22;9663;48.996;8.334;2023-09-19T08:12:42;22.40;60.50
19060;DHT22;9663;48.996;8.334;2023-09-19T08:15:15;22.50;60.30
19060;DHT22;9663;48.996;8.334;2023-09-19T08:17:43;22.60;59.60
19060;DHT22;9663;48.996;8.334;2023-09-19T08:20:09;22.70;59.70
19060;DHT22;9663;48.996;8.334;2023-09-19T08:22:53;22.80;59.70
19060;DHT22;9663;48.996;8.334;2023-09-19T08:25:23;22.80;59.20
19060;DHT22;9663;48.996;8.334;2023-09-19T08:27:50;22.90;59.30
19060;DHT22;9663;48.996;8.334;2023-09-19T08:30:17;22.90;59.20
19060;DHT22;9663;48.996;8.334;2023-09-19T08:32:45;22.90;59.20
19060;DHT22;9663;48.996;8.334;2023-09-19T08:35:13;23.00;59.20
19060;DHT22;9663;48.996;8.334;2023-09-19T08:37:39;23.00;59.00
19060;DHT22;9663;48.996;8.334;2023-09-19T08:40:05;23.10;59.10
19060;DHT22;9663;48.996;8.334;2023-09-19T08:42:54;23.10;58.80
19060;DHT22;9663;48.996;8.334;2023-09-19T08:45:22;23.20;58.50
19060;DHT22;9663;48.996;8.334;2023-09-19T08:48:17;23.20;58.60
19060;DHT22;9663;48.996;8.334;2023-09-19T08:50:59;23.20;58.40
19060;DHT22;9663;48.996;8.334;2023-09-19T08:53:41;23.20;57.10
19060;DHT22;9663;48.996;8.334;2023-09-19T08:56:18;23.20;57.60
19060;DHT22;9663;48.996;8.334;2023-09-19T09:01:33;23.20;57.00
19060;DHT22;9663;48.996;8.334;2023-09-19T09:04:01;23.30;57.20
19060;DHT22;9663;48.996;8.334;2023-09-19T09:06:28;23.30;56.80
19060;DHT22;9663;48.996;8.334;2023-09-19T09:08:55;23.40;56.60
19060;DHT22;9663;48.996;8.334;2023-09-19T09:11:21;23.40;56.60
19060;DHT22;9663;48.996;8.334;2023-09-19T09:13:50;23.50;56.60
19060;DHT22;9663;48.996;8.334;2023-09-19T09:16:15;23.60;56.80
19060;DHT22;9663;48.996;8.334;2023-09-19T09:18:44;23.70;56.30
19060;DHT22;9663;48.996;8.334;2023-09-19T09:21:11;23.70;56.20
19060;DHT22;9663;48.996;8.334;2023-09-19T09:23:39;23.80;55.40
19060;DHT22;9663;48.996;8.334;2023-09-19T09:26:04;23.80;56.00
19060;DHT22;9663;48.996;8.334;2023-09-19T09:28:32;23.90;55.90
19060;DHT22;9663;48.996;8.334;2023-09-19T09:31:01;24.00;55.90
19060;DHT22;9663;48.996;8.334;2023-09-19T09:33:31;24.10;55.80
19060;DHT22;9663;48.996;8.334;2023-09-19T09:35:58;24.20;55.70
19060;DHT22;9663;48.996;8.334;2023-09-19T09:38:46;24.30;55.20
19060;DHT22;9663;48.996;8.334;2023-09-19T09:41:36;24.50;54.40
19060;DHT22;9663;48.996;8.334;2023-09-19T09:44:13;24.60;53.90
19060;DHT22;9663;48.996;8.334;2023-09-19T09:46:47;24.60;54.40
19060;DHT22;9663;48.996;8.334;2023-09-19T09:49:27;24.70;54.00
19060;DHT22;9663;48.996;8.334;2023-09-19T09:52:07;24.70;54.00
19060;DHT22;9663;48.996;8.334;2023-09-19T09:55:02;24.70;54.10
19060;DHT22;9663;48.996;8.334;2023-09-19T09:57:31;24.80;53.10
19060;DHT22;9663;48.996;8.334;2023-09-19T09:59:58;24.80;54.10
19060;DHT22;9663;48.996;8.334;2023-09-19T10:02:37;24.90;54.40
19060;DHT22;9663;48.996;8.334;2023-09-19T10:05:17;25.00;54.70
19060;DHT22;9663;48.996;8.334;2023-09-19T10:07:52;25.10;53.60
19060;DHT22;9663;48.996;8.334;2023-09-19T10:10:42;25.10;53.70
19060;DHT22;9663;48.996;8.334;2023-09-19T10:13:12;25.20;52.10
19060;DHT22;9663;48.996;8.334;2023-09-19T10:15:46;25.30;53.40
19060;DHT22;9663;48.996;8.334;2023-09-19T10:18:20;25.30;52.80
19060;DHT22;9663;48.996;8.334;2023-09-19T10:20:48;25.30;52.30
19060;DHT22;9663;48.996;8.334;2023-09-19T10:23:17;25.20;52.40
19060;DHT22;9663;48.996;8.334;2023-09-19T10:25:55;25.20;52.20
19060;DHT22;9663;48.996;8.334;2023-09-19T10:28:23;25.20;53.00
19060;DHT22;9663;48.996;8.334;2023-09-19T10:30:53;25.30;52.90
19060;DHT22;9663;48.996;8.334;2023-09-19T10:33:23;25.30;52.70
19060;DHT22;9663;48.996;8.334;2023-09-19T10:35:57;25.40;52.10
19060;DHT22;9663;48.996;8.334;2023-09-19T10:38:26;25.60;51.70
19060;DHT22;9663;48.996;8.334;2023-09-19T10:40:55;25.60;51.60
19060;DHT22;9663;48.996;8.334;2023-09-19T10:43:34;25.60;51.40
19060;DHT22;9663;48.996;8.334;2023-09-19T10:46:07;25.40;50.60
19060;DHT22;9663;48.996;8.334;2023-09-19T10:48:36;25.30;50.90
19060;DHT22;9663;48.996;8.334;2023-09-19T10:51:21;25.20;51.10
19060;DHT22;9663;48.996;8.334;2023-09-19T10:54:01;25.20;50.90
19060;DHT22;9663;48.996;8.334;2023-09-19T10:56:37;25.20;51.10
19060;DHT22;9663;48.996;8.334;2023-09-19T10:59:11;25.20;51.60
19060;DHT22;9663;48.996;8.334;2023-09-19T11:01:51;25.20;51.70
19060;DHT22;9663;48.996;8.334;2023-09-19T11:04:29;25.30;51.20
19060;DHT22;9663;48.996;8.334;2023-09-19T11:07:09;25.30;51.50
19060;DHT22;9663;48.996;8.334;2023-09-19T11:09:53;25.40;51.40
19060;DHT22;9663;48.996;8.334;2023-09-19T11:14:56;25.40;50.80
19060;DHT22;9663;48.996;8.334;2023-09-19T11:17:35;25.40;51.00
19060;DHT22;9663;48.996;8.334;2023-09-19T11:30:42;26.60;50.50
19060;DHT22;9663;48.996;8.334;2023-09-19T11:33:47;27.30;51.20
19060;DHT22;9663;48.996;8.334;2023-09-19T11:36:16;28.30;49.30
19060;DHT22;9663;48.996;8.334;2023-09-19T11:46:26;29.10;47.00
19060;DHT22;9663;48.996;8.334;2023-09-19T11:48:54;29.00;46.80
19060;DHT22;9663;48.996;8.334;2023-09-19T11:51:23;28.90;47.30
19060;DHT22;9663;48.996;8.334;2023-09-19T11:53:57;29.10;48.20
19060;DHT22;9663;48.996;8.334;2023-09-19T11:56:26;29.50;47.00
19060;DHT22;9663;48.996;8.334;2023-09-19T11:58:55;30.10;47.90
19060;DHT22;9663;48.996;8.334;2023-09-19T12:01:28;30.60;47.50
19060;DHT22;9663;48.996;8.334;2023-09-19T12:04:03;31.10;46.70
19060;DHT22;9663;48.996;8.334;2023-09-19T12:06:30;31.60;46.00
19060;DHT22;9663;48.996;8.334;2023-09-19T12:08:57;32.00;46.30
19060;DHT22;9663;48.996;8.334;2023-09-19T12:11:41;32.60;45.90
19060;DHT22;9663;48.996;8.334;2023-09-19T12:14:09;33.10;42.90
19060;DHT22;9663;48.996;8.334;2023-09-19T12:16:35;33.60;43.90
19060;DHT22;9663;48.996;8.334;2023-09-19T12:19:18;33.80;42.90
19060;DHT22;9663;48.996;8.334;2023-09-19T12:22:01;34.00;40.70
19060;DHT22;9663;48.996;8.334;2023-09-19T12:24:31;34.20;39.90
19060;DHT22;9663;48.996;8.334;2023-09-19T12:27:03;34.20;40.70
19060;DHT22;9663;48.996;8.334;2023-09-19T12:29:45;33.80;39.60
19060;DHT22;9663;48.996;8.334;2023-09-19T12:32:14;33.20;38.60
19060;DHT22;9663;48.996;8.334;2023-09-19T12:34:49;32.70;40.30
19060;DHT22;9663;48.996;8.334;2023-09-19T12:37:17;32.50;41.60
19060;DHT22;9663;48.996;8.334;2023-09-19T12:39:52;32.60;41.50
19060;DHT22;9663;48.996;8.334;2023-09-19T12:42:26;32.80;40.40
19060;DHT22;9663;48.996;8.334;2023-09-19T12:45:00;33.00;40.10
19060;DHT22;9663;48.996;8.334;2023-09-19T12:47:27;33.10;40.20
19060;DHT22;9663;48.996;8.334;2023-09-19T12:50:14;33.30;40.50
19060;DHT22;9663;48.996;8.334;2023-09-19T12:52:47;33.60;38.90
19060;DHT22;9663;48.996;8.334;2023-09-19T12:55:30;33.60;39.50
19060;DHT22;9663;48.996;8.334;2023-09-19T12:58:13;33.30;38.10
19060;DHT22;9663;48.996;8.334;2023-09-19T13:00:45;32.90;38.60
19060;DHT22;9663;48.996;8.334;2023-09-19T13:05:58;32.30;39.20
19060;DHT22;9663;48.996;8.334;2023-09-19T13:08:39;32.30;39.40
19060;DHT22;9663;48.996;8.334;2023-09-19T13:11:16;32.30;38.10
19060;DHT22;9663;48.996;8.334;2023-09-19T13:13:46;32.20;38.90
19060;DHT22;9663;48.996;8.334;2023-09-19T13:16:21;31.90;39.20
19060;DHT22;9663;48.996;8.334;2023-09-19T13:18:50;31.60;39.00
19060;DHT22;9663;48.996;8.334;2023-09-19T13:21:26;31.20;38.80
19060;DHT22;9663;48.996;8.334;2023-09-19T13:23:55;30.90;39.00
19060;DHT22;9663;48.996;8.334;2023-09-19T13:26:28;30.60;39.20
19060;DHT22;9663;48.996;8.334;2023-09-19T13:28:56;30.40;39.80
19060;DHT22;9663;48.996;8.334;2023-09-19T13:31:22;30.40;40.00
19060;DHT22;9663;48.996;8.334;2023-09-19T13:33:49;30.40;40.10
19060;DHT22;9663;48.996;8.334;2023-09-19T13:36:15;30.50;40.50
19060;DHT22;9663;48.996;8.334;2023-09-19T13:38:44;30.70;40.80
19060;DHT22;9663;48.996;8.334;2023-09-19T13:41:10;31.30;40.80
19060;DHT22;9663;48.996;8.334;2023-09-19T13:43:37;31.80;40.20
19060;DHT22;9663;48.996;8.334;2023-09-19T13:46:04;32.10;39.20
19060;DHT22;9663;48.996;8.334;2023-09-19T13:48:30;32.20;38.90
19060;DHT22;9663;48.996;8.334;2023-09-19T13:50:56;32.30;38.80
19060;DHT22;9663;48.996;8.334;2023-09-19T13:53:22;32.40;38.90
19060;DHT22;9663;48.996;8.334;2023-09-19T13:55:49;32.60;38.80
19060;DHT22;9663;48.996;8.334;2023-09-19T13:58:14;32.70;37.90
19060;DHT22;9663;48.996;8.334;2023-09-19T14:00:40;32.80;37.80
19060;DHT22;9663;48.996;8.334;2023-09-19T14:03:06;32.90;38.50
19060;DHT22;9663;48.996;8.334;2023-09-19T14:05:32;33.20;38.20
19060;DHT22;9663;48.996;8.334;2023-09-19T14:07:58;33.60;38.30
19060;DHT22;9663;48.996;8.334;2023-09-19T14:10:25;33.80;37.50
19060;DHT22;9663;48.996;8.334;2023-09-19T14:12:53;33.80;36.80
19060;DHT22;9663;48.996;8.334;2023-09-19T14:15:18;33.80;36.90
19060;DHT22;9663;48.996;8.334;2023-09-19T14:17:44;33.90;37.20
19060;DHT22;9663;48.996;8.334;2023-09-19T14:20:11;34.20;37.30
19060;DHT22;9663;48.996;8.334;2023-09-19T14:22:37;34.40;36.70
19060;DHT22;9663;48.996;8.334;2023-09-19T14:25:04;34.70;36.60
19060;DHT22;9663;48.996;8.334;2023-09-19T14:27:30;34.80;35.50
19060;DHT22;9663;48.996;8.334;2023-09-19T14:29:56;34.70;35.00
19060;DHT22;9663;48.996;8.334;2023-09-19T14:32:23;34.40;34.20
19060;DHT22;9663;48.996;8.334;2023-09-19T14:34:49;34.00;34.60
19060;DHT22;9663;48.996;8.334;2023-09-19T14:37:15;33.80;35.10
19060;DHT22;9663;48.996;8.334;2023-09-19T14:39:42;33.70;35.80
19060;DHT22;9663;48.996;8.334;2023-09-19T14:42:10;33.90;36.20
19060;DHT22;9663;48.996;8.334;2023-09-19T14:44:39;34.10;35.50
19060;DHT22;9663;48.996;8.334;2023-09-19T14:47:04;34.10;34.90
19060;DHT22;9663;48.996;8.334;2023-09-19T14:49:33;34.00;34.40
19060;DHT22;9663;48.996;8.334;2023-09-19T14:52:00;33.60;33.80
19060;DHT22;9663;48.996;8.334;2023-09-19T14:54:29;33.10;33.90
19060;DHT22;9663;48.996;8.334;2023-09-19T14:56:56;32.50;34.40
19060;DHT22;9663;48.996;8.334;2023-09-19T14:59:32;32.20;35.30
19060;DHT22;9663;48.996;8.334;2023-09-19T15:01:59;32.00;35.30
19060;DHT22;9663;48.996;8.334;2023-09-19T15:04:25;31.90;35.60
19060;DHT22;9663;48.996;8.334;2023-09-19T15:06:52;31.70;35.70
19060;DHT22;9663;48.996;8.334;2023-09-19T15:09:23;31.60;35.80
19060;DHT22;9663;48.996;8.334;2023-09-19T15:11:54;31.40;35.60
19060;DHT22;9663;48.996;8.334;2023-09-19T15:14:21;31.20;35.70
19060;DHT22;9663;48.996;8.334;2023-09-19T15:16:48;30.90;36.00
19060;DHT22;9663;48.996;8.334;2023-09-19T15:19:14;30.80;36.60
19060;DHT22;9663;48.996;8.334;2023-09-19T15:21:41;30.70;36.80
19060;DHT22;9663;48.996;8.334;2023-09-19T15:24:07;30.90;37.10
19060;DHT22;9663;48.996;8.334;2023-09-19T15:26:35;31.10;37.30
19060;DHT22;9663;48.996;8.334;2023-09-19T15:29:08;31.40;36.80
19060;DHT22;9663;48.996;8.334;2023-09-19T15:31:35;31.70;37.00
19060;DHT22;9663;48.996;8.334;2023-09-19T15:34:05;32.00;36.80
19060;DHT22;9663;48.996;8.334;2023-09-19T15:36:34;32.10;36.30
19060;DHT22;9663;48.996;8.334;2023-09-19T15:39:01;32.10;36.00
19060;DHT22;9663;48.996;8.334;2023-09-19T15:41:38;32.10;36.00
19060;DHT22;9663;48.996;8.334;2023-09-19T15:44:14;32.10;36.20
19060;DHT22;9663;48.996;8.334;2023-09-19T15:46:41;32.10;35.50
19060;DHT22;9663;48.996;8.334;2023-09-19T15:49:08;31.90;35.60
19060;DHT22;9663;48.996;8.334;2023-09-19T15:51:34;31.70;35.40
19060;DHT22;9663;48.996;8.334;2023-09-19T15:54:02;31.30;35.00
19060;DHT22;9663;48.996;8.334;2023-09-19T15:56:33;31.20;35.70
19060;DHT22;9663;48.996;8.334;2023-09-19T15:59:00;31.10;35.80
19060;DHT22;9663;48.996;8.334;2023-09-19T16:01:26;30.90;35.90
19060;DHT22;9663;48.996;8.334;2023-09-19T16:03:53;30.70;36.00
19060;DHT22;9663;48.996;8.334;2023-09-19T16:06:28;30.50;35.90
19060;DHT22;9663;48.996;8.334;2023-09-19T16:08:58;30.20;35.80
19060;DHT22;9663;48.996;8.334;2023-09-19T16:11:26;29.90;36.10
19060;DHT22;9663;48.996;8.334;2023-09-19T16:13:53;29.70;36.50
19060;DHT22;9663;48.996;8.334;2023-09-19T16:16:20;29.50;36.80
19060;DHT22;9663;48.996;8.334;2023-09-19T16:18:50;29.30;37.20
19060;DHT22;9663;48.996;8.334;2023-09-19T16:21:23;29.20;38.00
19060;DHT22;9663;48.996;8.334;2023-09-19T16:23:52;29.10;37.70
19060;DHT22;9663;48.996;8.334;2023-09-19T16:26:19;29.20;38.30
19060;DHT22;9663;48.996;8.334;2023-09-19T16:28:50;29.40;38.40
19060;DHT22;9663;48.996;8.334;2023-09-19T16:31:18;29.60;38.10
19060;DHT22;9663;48.996;8.334;2023-09-19T16:33:46;29.70;38.40
19060;DHT22;9663;48.996;8.334;2023-09-19T16:36:19;29.70;37.60
19060;DHT22;9663;48.996;8.334;2023-09-19T16:38:47;29.70;37.60
19060;DHT22;9663;48.996;8.334;2023-09-19T16:41:13;29.60;37.50
19060;DHT22;9663;48.996;8.334;2023-09-19T16:43:40;29.50;37.20
19060;DHT22;9663;48.996;8.334;2023-09-19T16:46:08;29.20;37.40
19060;DHT22;9663;48.996;8.334;2023-09-19T16:48:42;29.10;37.50